Time;durP1;ratioP1;P1;durP2;ratioP2;P2;SDS_P1;SDS_P2;PMS_P1;PMS_P2;Temp;Humidity;BMP_temperature;BMP_pressure;BME280_temperature;BME280_humidity;BME280_pressure;Samples;Min_cycle;Max_cycle;Signal;HPM_P1;HPM_P2
2024/03/17 00:00:23;;;;;;;13.30;6.07;;;11.70;99.90;;;;;;5046443;28;20068;-75
2024/03/17 00:02:49;;;;;;;9.75;3.88;;;11.70;99.90;;;;;;5046063;28;20025;-75
2024/03/17 00:05:15;;;;;;;7.72;2.45;;;11.70;99.90;;;;;;5028535;28;20069;-75
2024/03/17 00:07:41;;;;;;;10.00;2.72;;;11.70;99.90;;;;;;5046351;28;20040;-75
2024/03/17 00:10:10;;;;;;;10.85;3.40;;;11.60;99.90;;;;;;5046369;28;20018;-75
2024/03/17 00:12:36;;;;;;;12.95;3.28;;;11.70;99.90;;;;;;5029274;28;20092;-75
2024/03/17 00:15:03;;;;;;;14.73;3.38;;;11.60;99.90;;;;;;5028551;28;20030;-75
2024/03/17 00:17:29;;;;;;;14.88;3.65;;;11.70;99.90;;;;;;5046256;28;20017;-75
2024/03/17 00:19:54;;;;;;;9.60;2.80;;;11.70;99.90;;;;;;5028833;28;20303;-75
2024/03/17 00:22:20;;;;;;;8.98;2.80;;;11.60;99.90;;;;;;5011998;28;20035;-75
2024/03/17 00:24:46;;;;;;;8.52;2.92;;;11.70;99.90;;;;;;5045829;28;20036;-76
2024/03/17 00:27:11;;;;;;;9.57;3.08;;;11.60;99.90;;;;;;5028567;28;20053;-76
2024/03/17 00:29:40;;;;;;;12.90;3.00;;;11.60;99.90;;;;;;5028585;28;20022;-76
2024/03/17 00:32:06;;;;;;;8.07;2.30;;;11.70;99.90;;;;;;5046060;28;20349;-76
2024/03/17 00:34:32;;;;;;;6.93;3.08;;;11.70;99.90;;;;;;5045550;28;20295;-76
2024/03/17 00:36:59;;;;;;;6.47;2.22;;;11.70;99.90;;;;;;5028545;28;20032;-76
2024/03/17 00:39:25;;;;;;;6.25;1.80;;;11.70;99.90;;;;;;5012121;28;20025;-76
2024/03/17 00:41:51;;;;;;;8.57;2.10;;;11.60;99.90;;;;;;5028167;28;20044;-76
2024/03/17 00:44:16;;;;;;;16.33;5.03;;;11.70;99.90;;;;;;5011568;28;20033;-76
2024/03/17 00:46:42;;;;;;;6.70;1.80;;;11.70;99.90;;;;;;5028052;28;20050;-76
2024/03/17 00:49:09;;;;;;;5.93;2.28;;;11.70;99.90;;;;;;5028379;28;20298;-76
2024/03/17 00:51:34;;;;;;;8.20;2.70;;;11.70;99.90;;;;;;5045833;28;20025;-76
2024/03/17 00:54:00;;;;;;;8.98;2.60;;;11.70;99.90;;;;;;5045767;28;20018;-76
2024/03/17 00:56:25;;;;;;;5.85;2.20;;;11.70;99.90;;;;;;5028094;28;20029;-75
2024/03/17 00:58:52;;;;;;;4.28;1.23;;;11.70;99.90;;;;;;5028320;28;20029;-76
2024/03/17 01:01:19;;;;;;;7.47;2.83;;;11.70;99.90;;;;;;5045498;28;20231;-75
2024/03/17 01:03:45;;;;;;;7.82;2.63;;;11.70;99.90;;;;;;5045625;28;20218;-76
2024/03/17 01:06:11;;;;;;;7.38;2.30;;;11.70;99.90;;;;;;5044310;28;20295;-76
2024/03/17 01:08:36;;;;;;;4.07;1.50;;;11.70;99.90;;;;;;5044370;28;20041;-76
2024/03/17 01:11:03;;;;;;;6.50;2.08;;;11.70;99.90;;;;;;5027999;28;20030;-76
2024/03/17 01:13:28;;;;;;;4.88;1.27;;;11.70;99.90;;;;;;5044593;28;20218;-75
2024/03/17 01:15:54;;;;;;;5.20;1.73;;;11.70;99.90;;;;;;5045508;28;20045;-76
2024/03/17 01:18:19;;;;;;;8.13;2.80;;;11.70;99.90;;;;;;5011443;28;20029;-76
2024/03/17 01:20:45;;;;;;;4.55;1.55;;;11.70;99.90;;;;;;5045240;28;20025;-78
2024/03/17 01:23:11;;;;;;;7.47;1.95;;;11.70;99.90;;;;;;5028013;28;20131;-75
2024/03/17 01:25:37;;;;;;;9.50;2.22;;;11.70;99.90;;;;;;5045020;28;20114;-75
2024/03/17 01:28:06;;;;;;;4.65;1.30;;;11.70;99.90;;;;;;5045484;28;20036;-74
2024/03/17 01:30:35;;;;;;;10.00;2.78;;;11.70;99.90;;;;;;5027971;28;20014;-75
2024/03/17 01:33:01;;;;;;;7.10;1.83;;;11.70;99.90;;;;;;5011961;28;20030;-75
2024/03/17 01:35:27;;;;;;;5.30;1.60;;;11.70;99.90;;;;;;5011526;28;20273;-75
2024/03/17 01:37:52;;;;;;;4.93;1.65;;;11.70;99.90;;;;;;5027951;28;20049;-75
2024/03/17 01:40:18;;;;;;;3.67;1.58;;;11.70;99.90;;;;;;5027941;28;20049;-75
2024/03/17 01:42:44;;;;;;;7.65;2.28;;;11.70;99.90;;;;;;5027980;28;20032;-75
2024/03/17 01:45:16;;;;;;;4.22;1.58;;;11.70;99.90;;;;;;5011215;28;20228;-75
2024/03/17 01:47:41;;;;;;;8.48;2.97;;;11.70;99.90;;;;;;5045096;28;20105;-75
2024/03/17 01:50:08;;;;;;;8.15;2.75;;;11.70;99.90;;;;;;5027913;28;20052;-75
2024/03/17 01:52:34;;;;;;;6.47;2.70;;;11.70;99.90;;;;;;5027648;28;20024;-75
2024/03/17 01:55:00;;;;;;;7.93;2.53;;;11.70;99.90;;;;;;5027648;28;20029;-75
2024/03/17 01:57:26;;;;;;;4.28;2.05;;;11.70;99.90;;;;;;5027648;28;20025;-75
2024/03/17 01:59:51;;;;;;;5.43;2.38;;;11.70;99.90;;;;;;5027559;28;20184;-76
2024/03/17 02:02:17;;;;;;;7.72;2.65;;;11.70;99.90;;;;;;5027487;28;20037;-75
2024/03/17 02:04:43;;;;;;;4.13;1.70;;;11.70;99.90;;;;;;5044993;28;20038;-75
2024/03/17 02:07:08;;;;;;;2.67;1.33;;;11.60;99.90;;;;;;5027472;28;20080;-75
2024/03/17 02:09:34;;;;;;;3.60;1.48;;;11.60;99.90;;;;;;5011365;28;20299;-75
2024/03/17 02:12:00;;;;;;;3.08;1.30;;;11.60;99.90;;;;;;5027734;28;20021;-75
2024/03/17 02:14:25;;;;;;;3.53;1.40;;;11.70;99.90;;;;;;5034627;28;20013;-74
2024/03/17 02:16:51;;;;;;;1.70;0.90;;;11.60;99.90;;;;;;5029130;28;20041;-75
2024/03/17 02:19:17;;;;;;;2.03;0.88;;;11.60;99.90;;;;;;5014623;28;20061;-74
2024/03/17 02:21:43;;;;;;;3.00;0.90;;;11.60;99.90;;;;;;5014602;28;20021;-74
2024/03/17 02:24:08;;;;;;;3.10;1.38;;;11.70;99.90;;;;;;5031054;28;20306;-74
2024/03/17 02:26:35;;;;;;;4.68;1.30;;;11.70;99.90;;;;;;5031712;28;20033;-75
2024/03/17 02:29:00;;;;;;;2.92;1.30;;;11.70;99.90;;;;;;5047905;28;20024;-74
2024/03/17 02:31:26;;;;;;;2.75;1.05;;;11.70;99.90;;;;;;5030618;28;20057;-74
2024/03/17 02:33:52;;;;;;;2.10;1.02;;;11.60;99.90;;;;;;5048204;28;20026;-77
2024/03/17 02:36:17;;;;;;;6.28;1.30;;;11.70;99.90;;;;;;5030795;28;20040;-74
2024/03/17 02:41:28;;;;;;;4.00;1.25;;;11.60;99.90;;;;;;5033400;28;20332;-74
2024/03/17 02:43:54;;;;;;;3.72;0.90;;;11.60;99.90;;;;;;5030440;28;20056;-74
2024/03/17 02:46:19;;;;;;;3.20;1.00;;;11.60;99.90;;;;;;5013762;28;20310;-75
2024/03/17 02:48:47;;;;;;;3.20;0.90;;;11.60;99.90;;;;;;5030497;28;20028;-73
2024/03/17 02:51:17;;;;;;;3.13;0.95;;;11.60;99.90;;;;;;5047885;28;20068;-73
2024/03/17 02:53:48;;;;;;;2.17;0.90;;;11.60;99.90;;;;;;5048361;28;20026;-74
2024/03/17 02:56:16;;;;;;;1.55;0.80;;;11.60;99.90;;;;;;5013794;28;20237;-74
2024/03/17 02:58:42;;;;;;;2.30;0.90;;;11.50;99.90;;;;;;5030868;28;20044;-74
2024/03/17 03:01:07;;;;;;;2.55;0.98;;;11.50;99.90;;;;;;5030043;28;20033;-74
2024/03/17 03:03:33;;;;;;;1.65;0.80;;;11.50;99.90;;;;;;5013617;28;20052;-74
2024/03/17 03:06:04;;;;;;;1.17;0.73;;;11.50;99.90;;;;;;5030108;28;20040;-75
2024/03/17 03:08:33;;;;;;;3.28;0.98;;;11.50;99.90;;;;;;5031011;28;20187;-75
2024/03/17 03:10:59;;;;;;;2.83;1.00;;;11.50;99.90;;;;;;5030380;28;20041;-73
2024/03/17 03:13:25;;;;;;;0.73;0.70;;;11.50;99.90;;;;;;5047087;28;20234;-76
2024/03/17 03:15:51;;;;;;;1.23;0.77;;;11.50;99.90;;;;;;5013255;28;20029;-74
2024/03/17 03:18:16;;;;;;;1.10;0.60;;;11.50;99.90;;;;;;5013447;28;20041;-74
2024/03/17 03:20:43;;;;;;;2.28;0.73;;;11.50;99.90;;;;;;5029788;28;20037;-74
2024/03/17 03:23:09;;;;;;;3.42;0.80;;;11.40;99.90;;;;;;5029870;28;20088;-75
2024/03/17 03:25:34;;;;;;;1.95;0.68;;;11.40;99.90;;;;;;5029740;28;20037;-75
2024/03/17 03:28:01;;;;;;;1.85;0.80;;;11.40;99.90;;;;;;5028863;28;20316;-74
2024/03/17 03:30:27;;;;;;;1.05;0.70;;;11.40;99.90;;;;;;5046014;28;20037;-74
2024/03/17 03:32:53;;;;;;;2.80;0.70;;;11.40;99.90;;;;;;5046936;28;20030;-75
2024/03/17 03:35:19;;;;;;;2.42;0.80;;;11.40;99.90;;;;;;5047020;28;20174;-75
2024/03/17 03:37:45;;;;;;;0.60;0.60;;;11.40;99.90;;;;;;5029645;28;20027;-74
2024/03/17 03:40:17;;;;;;;3.13;0.70;;;11.40;99.90;;;;;;5046627;28;20033;-74
2024/03/17 03:42:46;;;;;;;0.57;0.55;;;11.40;99.90;;;;;;5029278;28;20033;-75
2024/03/17 03:45:12;;;;;;;3.05;0.80;;;11.40;99.90;;;;;;5029222;28;20155;-74
2024/03/17 03:47:42;;;;;;;4.25;0.70;;;11.40;99.90;;;;;;5046353;28;20323;-74
2024/03/17 03:50:11;;;;;;;1.10;0.50;;;11.40;99.90;;;;;;5029671;28;20029;-75
2024/03/17 03:52:37;;;;;;;0.60;0.60;;;11.40;99.90;;;;;;5029230;28;20147;-75
2024/03/17 03:55:04;;;;;;;3.50;0.77;;;11.40;99.90;;;;;;5046571;28;20029;-75
2024/03/17 03:57:31;;;;;;;3.13;0.60;;;11.40;99.90;;;;;;5029114;28;20075;-75
2024/03/17 03:59:58;;;;;;;1.55;0.60;;;11.40;99.90;;;;;;5029414;28;20199;-75
2024/03/17 04:02:27;;;;;;;1.67;0.50;;;11.40;99.90;;;;;;5029186;28;20041;-75
2024/03/17 04:04:53;;;;;;;1.02;0.63;;;11.30;99.90;;;;;;5012962;28;20045;-74
2024/03/17 04:07:18;;;;;;;2.58;0.77;;;11.30;99.90;;;;;;5046295;28;20190;-74
2024/03/17 04:09:44;;;;;;;1.52;0.63;;;11.30;99.90;;;;;;5046517;28;20214;-74
2024/03/17 04:12:10;;;;;;;1.35;0.52;;;11.30;99.90;;;;;;5046442;28;20135;-76
2024/03/17 04:14:35;;;;;;;2.35;0.63;;;11.30;99.90;;;;;;5029013;28;20029;-75
2024/03/17 04:17:01;;;;;;;1.00;0.60;;;11.30;99.90;;;;;;5028982;28;20309;-75
2024/03/17 04:19:29;;;;;;;2.20;0.50;;;11.30;99.90;;;;;;5028926;28;20018;-75
2024/03/17 04:21:54;;;;;;;0.50;0.50;;;11.30;99.90;;;;;;5028826;28;20347;-75
2024/03/17 04:24:20;;;;;;;0.50;0.50;;;11.30;99.90;;;;;;5012150;28;20037;-75
2024/03/17 04:26:46;;;;;;;1.75;0.60;;;11.30;99.90;;;;;;5012098;28;20103;-76
2024/03/17 04:29:12;;;;;;;1.10;0.50;;;11.30;99.90;;;;;;5028692;28;20183;-74
2024/03/17 04:31:37;;;;;;;0.85;0.50;;;11.30;99.90;;;;;;5028754;28;20028;-75
2024/03/17 04:34:03;;;;;;;1.38;0.90;;;11.30;99.90;;;;;;5046100;28;20025;-75
2024/03/17 04:36:29;;;;;;;0.93;0.60;;;11.20;99.90;;;;;;5028379;28;20117;-75
2024/03/17 04:38:54;;;;;;;4.60;0.70;;;11.30;99.90;;;;;;5028427;28;20225;-75
2024/03/17 04:41:20;;;;;;;1.08;0.70;;;11.20;99.90;;;;;;5028698;28;20032;-75
2024/03/17 04:43:46;;;;;;;0.55;0.47;;;11.20;99.90;;;;;;5028481;28;20030;-75
2024/03/17 04:46:13;;;;;;;0.60;0.60;;;11.20;99.90;;;;;;5011701;28;20076;-74
2024/03/17 04:48:39;;;;;;;4.07;0.70;;;11.20;99.90;;;;;;5045685;28;20199;-74
2024/03/17 04:51:05;;;;;;;2.33;0.60;;;11.30;99.90;;;;;;5028277;28;20040;-75
2024/03/17 04:53:31;;;;;;;1.50;0.70;;;11.20;99.90;;;;;;5011978;28;20037;-75
2024/03/17 04:56:04;;;;;;;1.90;0.80;;;11.30;99.90;;;;;;5028379;28;20182;-75
2024/03/17 04:58:33;;;;;;;2.47;0.85;;;11.20;99.90;;;;;;5011921;28;20075;-76
2024/03/17 05:01:06;;;;;;;2.60;0.80;;;11.30;99.90;;;;;;5028359;28;20026;-75
2024/03/17 05:03:32;;;;;;;1.17;0.65;;;11.30;99.90;;;;;;5028300;28;20025;-76
2024/03/17 05:06:00;;;;;;;1.58;0.50;;;11.30;99.90;;;;;;5028209;28;20025;-75
2024/03/17 05:08:26;;;;;;;1.60;0.85;;;11.30;99.90;;;;;;5028608;28;20037;-75
2024/03/17 05:10:57;;;;;;;3.03;0.80;;;11.30;99.90;;;;;;5028056;28;20030;-75
2024/03/17 05:13:22;;;;;;;2.53;0.77;;;11.30;99.90;;;;;;5028285;28;20013;-75
2024/03/17 05:15:48;;;;;;;0.70;0.60;;;11.30;99.90;;;;;;5028155;28;20033;-75
2024/03/17 05:18:13;;;;;;;1.70;0.70;;;11.30;99.90;;;;;;5027899;28;20033;-74
2024/03/17 05:20:39;;;;;;;1.15;0.75;;;11.30;99.90;;;;;;5027910;28;20033;-76
2024/03/17 05:23:05;;;;;;;1.25;0.70;;;11.30;99.90;;;;;;5045344;28;20079;-74
2024/03/17 05:25:32;;;;;;;3.05;0.60;;;11.30;99.90;;;;;;5027940;28;20082;-73
2024/03/17 05:27:58;;;;;;;0.98;0.60;;;11.30;99.90;;;;;;5028252;28;20013;-74
2024/03/17 05:30:25;;;;;;;2.55;0.70;;;11.30;99.90;;;;;;5027810;28;20306;-75
2024/03/17 05:32:51;;;;;;;3.45;0.70;;;11.30;99.90;;;;;;5045378;28;20096;-75
2024/03/17 05:35:16;;;;;;;2.00;0.63;;;11.30;99.90;;;;;;5011449;28;20080;-75
2024/03/17 05:37:42;;;;;;;1.95;0.80;;;11.40;99.90;;;;;;5027944;28;20295;-75
2024/03/17 05:40:12;;;;;;;1.40;0.65;;;11.40;99.90;;;;;;5011371;28;20033;-75
2024/03/17 05:42:38;;;;;;;1.27;0.60;;;11.40;99.90;;;;;;5028242;28;20080;-75
2024/03/17 05:45:03;;;;;;;1.75;0.68;;;11.40;99.90;;;;;;5027736;28;20033;-74
2024/03/17 05:47:29;;;;;;;2.50;0.93;;;11.40;99.90;;;;;;5027481;28;20050;-74
2024/03/17 05:49:55;;;;;;;1.33;0.70;;;11.40;99.90;;;;;;5011298;28;20022;-74
2024/03/17 05:52:21;;;;;;;0.50;0.50;;;11.40;99.90;;;;;;5030264;28;20036;-75
2024/03/17 05:54:47;;;;;;;1.10;0.68;;;11.40;99.90;;;;;;5031675;28;20077;-75
2024/03/17 05:57:16;;;;;;;3.28;0.95;;;11.40;99.90;;;;;;5031496;28;20021;-75
2024/03/17 05:59:42;;;;;;;1.38;0.90;;;11.40;99.90;;;;;;5031922;28;20029;-75
2024/03/17 06:02:10;;;;;;;7.05;2.17;;;11.40;99.90;;;;;;5031575;28;20033;-76
2024/03/17 06:04:35;;;;;;;8.43;2.97;;;11.40;99.90;;;;;;5047606;28;20278;-75
2024/03/17 06:07:01;;;;;;;4.15;1.67;;;11.40;99.90;;;;;;5031159;28;20087;-75
2024/03/17 06:09:27;;;;;;;2.47;1.20;;;11.40;99.90;;;;;;5048785;28;20094;-75
2024/03/17 06:11:52;;;;;;;3.10;0.80;;;11.40;99.90;;;;;;5014724;28;20032;-75
2024/03/17 06:14:18;;;;;;;4.05;1.38;;;11.40;99.90;;;;;;5048548;28;20183;-75
2024/03/17 06:16:44;;;;;;;4.68;1.05;;;11.40;99.90;;;;;;5031010;28;20112;-75
2024/03/17 06:19:09;;;;;;;1.85;0.90;;;11.40;99.90;;;;;;5014501;28;20022;-75
2024/03/17 06:21:35;;;;;;;3.75;1.08;;;11.40;99.90;;;;;;5030939;28;20033;-75
2024/03/17 06:24:01;;;;;;;3.10;0.90;;;11.40;99.90;;;;;;5030973;28;20026;-75
2024/03/17 06:26:26;;;;;;;2.90;0.90;;;11.40;99.90;;;;;;5090181;22;20264;-44
2024/03/17 06:28:52;;;;;;;4.30;0.90;;;11.40;99.90;;;;;;5108700;28;20055;-44
2024/03/17 06:31:18;;;;;;;3.88;1.15;;;11.40;99.90;;;;;;5108571;28;20282;-44
2024/03/17 06:33:43;;;;;;;3.85;1.30;;;11.40;99.90;;;;;;5108431;28;20146;-44
2024/03/17 06:36:09;;;;;;;4.53;1.17;;;11.40;99.90;;;;;;5090520;28;20040;-43
2024/03/17 06:38:34;;;;;;;5.15;1.20;;;11.40;99.90;;;;;;5108533;28;20027;-44
2024/03/17 06:41:00;;;;;;;4.13;1.00;;;11.40;99.90;;;;;;5108483;28;20020;-44
2024/03/17 06:43:26;;;;;;;8.20;1.50;;;11.40;99.90;;;;;;5090357;28;20031;-44
2024/03/17 06:45:56;;;;;;;2.65;1.00;;;11.40;99.90;;;;;;5108089;28;20083;-44
2024/03/17 06:48:21;;;;;;;8.73;1.70;;;11.40;99.90;;;;;;5090487;28;20012;-44
2024/03/17 06:50:47;;;;;;;4.40;1.50;;;11.40;99.90;;;;;;5090399;28;20300;-44
2024/03/17 06:53:13;;;;;;;8.88;2.10;;;11.40;99.90;;;;;;5107880;28;20289;-45
2024/03/17 06:55:38;;;;;;;7.60;2.30;;;11.40;99.90;;;;;;5108044;28;20028;-44
2024/03/17 06:58:04;;;;;;;6.13;2.05;;;11.40;99.90;;;;;;5108434;28;20070;-44
2024/03/17 07:00:30;;;;;;;6.80;2.97;;;11.40;99.90;;;;;;5108142;28;20039;-44
2024/03/17 07:02:55;;;;;;;15.07;5.00;;;11.40;99.90;;;;;;5108080;28;20095;-43
2024/03/17 07:05:21;;;;;;;8.90;2.92;;;11.50;99.90;;;;;;5107820;28;20277;-45
2024/03/17 07:07:47;;;;;;;12.05;4.22;;;11.40;99.90;;;;;;5107691;28;20031;-44
2024/03/17 07:10:12;;;;;;;13.55;3.45;;;11.40;99.90;;;;;;5107934;28;20296;-44
2024/03/17 07:12:39;;;;;;;15.25;5.70;;;11.50;99.90;;;;;;5090003;28;20221;-45
2024/03/17 07:15:05;;;;;;;16.40;3.83;;;11.40;99.90;;;;;;5107348;28;20052;-45
2024/03/17 07:17:30;;;;;;;11.88;3.80;;;11.50;99.90;;;;;;5107735;28;20024;-44
2024/03/17 07:19:56;;;;;;;17.27;6.00;;;11.50;99.90;;;;;;5107538;28;20134;-45
2024/03/17 07:22:22;;;;;;;10.13;3.03;;;11.50;99.90;;;;;;5107647;28;20027;-44
2024/03/17 07:24:52;;;;;;;5.88;2.90;;;11.50;99.90;;;;;;5107570;28;20075;-45
2024/03/17 07:27:17;;;;;;;11.40;3.00;;;11.50;99.90;;;;;;5107378;28;20174;-43
2024/03/17 07:29:43;;;;;;;5.35;2.20;;;11.50;99.90;;;;;;5107651;28;20053;-44
2024/03/17 07:32:08;;;;;;;7.10;1.88;;;11.50;99.90;;;;;;5107028;28;20020;-43
2024/03/17 07:34:35;;;;;;;7.25;2.25;;;11.60;99.90;;;;;;5107431;28;20028;-43
2024/03/17 07:37:02;;;;;;;4.05;2.00;;;11.60;99.90;;;;;;5107435;28;20257;-43
2024/03/17 07:39:32;;;;;;;10.60;1.70;;;11.60;99.90;;;;;;5107222;28;20095;-51
2024/03/17 07:42:01;;;;;;;7.40;1.98;;;11.60;99.90;;;;;;5107144;28;20346;-44
2024/03/17 07:44:28;;;;;;;7.32;2.05;;;11.60;99.90;;;;;;5107220;28;20036;-43
2024/03/17 07:46:57;;;;;;;8.35;2.45;;;11.60;99.90;;;;;;5106627;28;20109;-43
2024/03/17 07:49:23;;;;;;;7.40;2.20;;;11.60;99.90;;;;;;5107075;28;20105;-43
2024/03/17 07:51:48;;;;;;;8.65;1.80;;;11.60;99.90;;;;;;5106965;28;20017;-44
2024/03/17 07:54:14;;;;;;;8.13;1.88;;;11.60;99.90;;;;;;5107084;28;20088;-44
2024/03/17 07:56:40;;;;;;;5.93;1.50;;;11.60;99.90;;;;;;5107058;28;20032;-44
2024/03/17 07:59:11;;;;;;;4.18;1.25;;;11.60;99.90;;;;;;5106998;28;20288;-44
2024/03/17 08:01:37;;;;;;;7.07;1.48;;;11.60;99.90;;;;;;5106850;28;20024;-44
2024/03/17 08:04:03;;;;;;;8.77;1.58;;;11.60;99.90;;;;;;5106676;28;20319;-44
2024/03/17 08:06:29;;;;;;;5.90;1.83;;;11.60;99.90;;;;;;5106642;28;20036;-44
2024/03/17 08:08:55;;;;;;;3.80;1.40;;;11.70;99.90;;;;;;5106666;28;20023;-43
2024/03/17 08:11:20;;;;;;;6.72;2.05;;;11.60;99.90;;;;;;5088836;28;20281;-43
2024/03/17 08:13:46;;;;;;;6.20;1.42;;;11.60;99.90;;;;;;5105955;28;20066;-44
2024/03/17 08:16:11;;;;;;;4.68;1.80;;;11.60;99.90;;;;;;5106470;28;20081;-44
2024/03/17 08:18:37;;;;;;;6.72;1.90;;;11.60;99.90;;;;;;5088400;28;20052;-43
2024/03/17 08:21:06;;;;;;;4.28;1.38;;;11.60;99.90;;;;;;5106781;28;20027;-44
2024/03/17 08:23:46;;;;;;;7.43;1.38;;;11.60;99.90;;;;;;5089088;28;20292;-44
2024/03/17 08:26:12;;;;;;;7.68;1.50;;;11.60;99.90;;;;;;5105672;28;20048;-45
2024/03/17 08:28:38;;;;;;;4.22;1.13;;;11.60;99.90;;;;;;5087710;28;20068;-43
2024/03/17 08:31:04;;;;;;;7.10;1.30;;;11.60;99.90;;;;;;5105624;28;20027;-43
2024/03/17 08:33:30;;;;;;;3.08;1.23;;;11.60;99.90;;;;;;5070791;28;20099;-44
2024/03/17 08:36:02;;;;;;;7.80;1.65;;;11.60;99.90;;;;;;5105088;28;20043;-43
2024/03/17 08:38:28;;;;;;;3.75;1.20;;;11.60;99.90;;;;;;5105539;28;20032;-43
2024/03/17 08:40:57;;;;;;;4.60;1.20;;;11.60;99.90;;;;;;5105426;28;20028;-45
2024/03/17 08:43:23;;;;;;;5.60;1.77;;;11.60;99.90;;;;;;5088168;28;20019;-43
2024/03/17 08:46:04;;;;;;;3.70;1.10;;;11.60;99.90;;;;;;5087376;28;20092;-43
2024/03/17 08:48:32;;;;;;;6.47;1.70;;;11.70;99.90;;;;;;5087121;28;20028;-43
2024/03/17 08:50:58;;;;;;;5.95;1.35;;;11.60;99.90;;;;;;5105284;28;20031;-43
2024/03/17 08:53:23;;;;;;;5.70;1.23;;;11.70;99.90;;;;;;5104978;28;20071;-44
2024/03/17 08:55:49;;;;;;;3.45;1.40;;;11.70;99.90;;;;;;5087289;28;20058;-43
2024/03/17 08:58:15;;;;;;;10.43;2.22;;;11.70;99.90;;;;;;5087449;28;20274;-44
2024/03/17 09:00:41;;;;;;;5.40;1.70;;;11.70;99.90;;;;;;5105272;28;20295;-44
2024/03/17 09:03:11;;;;;;;11.18;2.70;;;11.70;99.90;;;;;;5105126;28;20032;-44
2024/03/17 09:05:37;;;;;;;;;;;11.70;99.90;;;;;;5105169;28;20265;-43
2024/03/17 09:08:03;;;;;;;6.32;2.30;;;11.70;99.90;;;;;;5104553;28;19908;-43
2024/03/17 09:10:29;;;;;;;7.30;1.90;;;11.70;99.90;;;;;;5104896;28;20032;-44
2024/03/17 09:12:54;;;;;;;6.30;1.48;;;11.70;99.90;;;;;;5104960;28;20031;-43
2024/03/17 09:15:20;;;;;;;6.32;1.73;;;11.70;99.90;;;;;;5104719;28;20028;-43
2024/03/17 09:17:46;;;;;;;4.65;1.60;;;11.70;99.90;;;;;;5104652;28;20032;-43
2024/03/17 09:20:12;;;;;;;5.88;1.85;;;11.80;99.90;;;;;;5104785;28;20082;-45
2024/03/17 09:22:41;;;;;;;5.53;1.42;;;11.80;99.90;;;;;;5087002;28;20158;-43
2024/03/17 09:25:11;;;;;;;5.60;1.80;;;11.80;99.90;;;;;;5089428;28;264910;-46
2024/03/17 09:27:36;;;;;;;3.35;1.02;;;11.80;99.90;;;;;;5097706;28;20288;-43
2024/03/17 09:30:11;;;;;;;5.38;1.63;;;11.90;99.90;;;;;;5109797;28;20020;-43
2024/03/17 09:32:37;;;;;;;4.18;1.40;;;12.00;99.90;;;;;;5109661;28;20023;-44
2024/03/17 09:35:04;;;;;;;6.22;1.58;;;12.00;99.90;;;;;;5109717;28;20162;-43
2024/03/17 09:37:31;;;;;;;4.57;1.35;;;12.00;99.90;;;;;;5109515;28;20023;-44
2024/03/17 09:39:58;;;;;;;5.20;1.65;;;12.00;99.90;;;;;;5109051;28;20260;-44
2024/03/17 09:42:23;;;;;;;5.45;1.15;;;12.10;99.90;;;;;;5109500;28;20059;-43
2024/03/17 09:44:49;;;;;;;5.85;1.58;;;12.10;99.90;;;;;;5091563;28;20069;-43
2024/03/17 09:47:22;;;;;;;8.00;1.80;;;12.20;99.90;;;;;;5091219;28;20035;-44
2024/03/17 09:49:48;;;;;;;10.15;2.92;;;12.20;99.90;;;;;;5109196;28;20181;-43
2024/03/17 09:52:24;;;;;;;11.23;2.90;;;12.20;99.90;;;;;;5109303;28;20275;-45
2024/03/17 09:54:59;;;;;;;9.02;1.90;;;12.40;99.90;;;;;;5109148;28;20055;-44
2024/03/17 09:57:25;;;;;;;5.80;2.08;;;12.40;99.90;;;;;;5074407;28;20031;-44
2024/03/17 09:59:52;;;;;;;11.88;4.50;;;12.70;99.90;;;;;;5074453;28;20031;-44
2024/03/17 10:02:18;;;;;;;3.80;1.55;;;12.80;99.90;;;;;;5108937;28;20047;-44
2024/03/17 10:04:44;;;;;;;13.90;5.07;;;13.10;99.90;;;;;;5091355;28;20069;-44
2024/03/17 10:07:09;;;;;;;4.95;2.00;;;13.10;99.90;;;;;;5109042;28;20103;-46
2024/03/17 10:09:36;;;;;;;7.90;2.30;;;13.10;99.90;;;;;;5108653;28;20020;-45
2024/03/17 10:12:02;;;;;;;38.00;19.10;;;13.00;99.90;;;;;;5108444;28;20047;-44
2024/03/17 10:14:28;;;;;;;5.57;1.70;;;13.10;99.90;;;;;;5108830;28;20031;-44
2024/03/17 10:16:53;;;;;;;3.95;1.92;;;13.20;99.90;;;;;;5074063;28;20020;-46
2024/03/17 10:19:23;;;;;;;5.25;2.53;;;13.20;99.90;;;;;;5108579;28;20034;-44
2024/03/17 10:21:49;;;;;;;;;;;13.20;99.90;;;;;;5108911;28;20048;-43
2024/03/17 10:24:24;;;;;;;2.47;1.52;;;13.30;99.90;;;;;;5108656;28;19945;-45
2024/03/17 10:26:51;;;;;;;7.03;2.67;;;13.20;99.90;;;;;;5108354;28;20036;-45
2024/03/17 10:29:35;;;;;;;7.63;1.88;;;13.20;99.90;;;;;;5090612;28;20050;-45
2024/03/17 10:32:14;;;;;;;7.38;2.05;;;13.10;99.90;;;;;;5090729;28;20097;-44
2024/03/17 10:34:40;;;;;;;6.97;1.85;;;13.00;99.90;;;;;;5090476;28;20240;-44
2024/03/17 10:37:10;;;;;;;7.80;1.77;;;12.90;99.90;;;;;;5107910;28;20044;-44
2024/03/17 10:39:37;;;;;;;9.40;2.35;;;12.80;99.90;;;;;;5108066;28;20029;-43
2024/03/17 10:42:04;;;;;;;8.30;2.00;;;12.60;99.90;;;;;;5107698;28;20038;-44
2024/03/17 10:44:33;;;;;;;11.57;2.72;;;12.60;99.90;;;;;;5108163;28;20032;-45
2024/03/17 10:47:00;;;;;;;10.18;2.97;;;12.60;99.90;;;;;;5089913;28;20071;-44
2024/03/17 10:49:33;;;;;;;13.55;4.00;;;12.60;99.90;;;;;;5107912;28;20020;-44
2024/03/17 10:52:15;;;;;;;7.45;2.85;;;12.70;99.90;;;;;;5108035;28;20024;-44
2024/03/17 10:54:40;;;;;;;10.80;2.67;;;12.70;99.90;;;;;;5090829;28;20261;-44
2024/03/17 10:57:31;;;;;;;12.15;3.65;;;12.60;99.90;;;;;;5107625;28;20076;-45
2024/03/17 10:59:57;;;;;;;5.55;2.25;;;12.50;99.90;;;;;;5107617;28;20058;-45
2024/03/17 11:02:24;;;;;;;10.27;3.40;;;12.40;99.90;;;;;;5089994;28;20289;-44
2024/03/17 11:04:57;;;;;;;19.88;12.30;;;12.30;99.90;;;;;;5089957;28;20273;-44
2024/03/17 11:07:23;;;;;;;13.77;4.10;;;12.30;99.90;;;;;;5089531;28;20036;-44
2024/03/17 11:09:50;;;;;;;10.18;3.25;;;12.20;99.90;;;;;;5107534;28;20035;-43
2024/03/17 11:12:44;;;;;;;20.65;6.43;;;12.10;99.90;;;;;;5107706;28;20181;-44
2024/03/17 11:15:19;;;;;;;20.65;9.40;;;12.20;99.90;;;;;;5107033;28;20039;-43
2024/03/17 11:17:45;;;;;;;14.73;5.22;;;12.10;99.90;;;;;;5107305;28;20336;-47
2024/03/17 11:20:15;;;;;;;12.55;2.83;;;12.00;99.90;;;;;;5106937;28;20293;-44
2024/03/17 11:22:41;;;;;;;;;;;11.90;99.90;;;;;;5089970;28;20073;-43
2024/03/17 11:25:25;;;;;;;13.48;4.25;;;11.90;99.90;;;;;;5107389;28;19916;-44
2024/03/17 11:27:52;;;;;;;15.70;6.10;;;12.00;99.90;;;;;;5106944;28;20034;-43
2024/03/17 11:31:24;;;;;;;7.30;2.35;;;12.00;99.90;;;;;;5107107;28;20087;-43
2024/03/17 11:33:37;;;;;;;8.45;2.67;;;12.00;99.90;;;;;;5093440;28;20039;-44
2024/03/17 11:36:29;;;;;;;17.85;3.30;;;12.10;99.90;;;;;;5107072;28;20028;-44
2024/03/17 11:39:16;;;;;;;14.23;4.97;;;12.20;99.90;;;;;;5083495;28;20079;-43
2024/03/17 11:41:48;;;;;;;9.50;2.53;;;12.20;99.90;;;;;;5106856;28;20029;-48
2024/03/17 11:44:29;;;;;;;14.57;4.80;;;12.40;99.90;;;;;;5107658;28;20050;-45
2024/03/17 11:47:00;;;;;;;15.68;3.13;;;12.40;99.90;;;;;;5112655;28;20068;-47
2024/03/17 11:49:29;;;;;;;9.23;3.85;;;12.40;99.90;;;;;;5111013;28;20054;-46
2024/03/17 11:51:56;;;;;;;13.20;4.80;;;12.30;99.90;;;;;;5110239;28;20087;-47
2024/03/17 11:54:27;;;;;;;10.45;3.63;;;12.20;99.90;;;;;;5092586;28;20024;-44
2024/03/17 11:56:53;;;;;;;17.65;3.00;;;12.20;99.90;;;;;;5092160;28;20154;-48
2024/03/17 11:59:19;;;;;;;10.52;3.08;;;12.20;99.90;;;;;;5109940;28;20185;-45
2024/03/17 12:01:54;;;;;;;15.23;3.00;;;12.40;99.90;;;;;;5109869;28;20024;-45
2024/03/17 12:04:20;;;;;;;12.85;2.47;;;12.50;99.90;;;;;;5106482;28;20038;-47
2024/03/17 12:06:50;;;;;;;14.75;4.57;;;12.60;99.90;;;;;;5106844;28;20058;-43
2024/03/17 12:09:21;;;;;;;12.77;2.28;;;12.80;99.90;;;;;;5089526;28;20039;-44
2024/03/17 12:11:49;;;;;;;11.98;3.72;;;12.80;99.90;;;;;;5106685;28;20047;-46
2024/03/17 12:14:20;;;;;;;8.15;2.33;;;12.90;99.90;;;;;;5106575;28;20028;-45
2024/03/17 12:16:48;;;;;;;7.63;1.98;;;12.90;99.90;;;;;;5072235;28;20038;-47
2024/03/17 12:19:16;;;;;;;8.32;2.45;;;12.80;99.90;;;;;;5106360;28;20103;-47
2024/03/17 12:21:45;;;;;;;4.93;1.85;;;12.70;99.90;;;;;;5106385;28;20247;-45
2024/03/17 12:24:19;;;;;;;9.13;2.15;;;12.60;99.90;;;;;;5106371;28;20311;-46
2024/03/17 12:26:45;;;;;;;6.90;1.75;;;12.80;99.90;;;;;;5088576;28;20082;-43
2024/03/17 12:29:27;;;;;;;11.70;2.78;;;12.80;99.90;;;;;;5106056;28;20191;-47
2024/03/17 12:31:53;;;;;;;9.30;1.83;;;12.90;99.90;;;;;;5106245;28;20104;-45
2024/03/17 12:34:20;;;;;;;6.65;1.50;;;12.90;99.90;;;;;;5088378;28;20039;-45
2024/03/17 12:36:46;;;;;;;14.20;1.85;;;12.60;99.90;;;;;;5088375;28;20031;-44
2024/03/17 12:39:27;;;;;;;9.65;2.03;;;12.70;99.90;;;;;;5106024;28;20078;-48
2024/03/17 12:42:09;;;;;;;6.53;1.95;;;12.50;99.90;;;;;;5106196;28;20028;-45
2024/03/17 12:44:55;;;;;;;6.18;1.60;;;12.50;99.90;;;;;;5106795;28;20177;-45
2024/03/17 12:47:22;;;;;;;12.23;2.85;;;12.40;99.90;;;;;;5105197;28;20058;-45
2024/03/17 12:49:53;;;;;;;11.50;2.40;;;12.30;99.90;;;;;;5106202;28;20294;-46